Time;durP1;ratioP1;P1;durP2;ratioP2;P2;SDS_P1;SDS_P2;PMS_P1;PMS_P2;Temp;Humidity;BMP_temperature;BMP_pressure;BME280_temperature;BME280_humidity;BME280_pressure;Samples;Min_cycle;Max_cycle;Signal;HPM_P1;HPM_P2
2022/03/31 00:00:41;;;;;;;0.10;0.10;;;;;;;5.86;52.68;100855.00;7363035;19;20102;-60
2022/03/31 00:03:08;;;;;;;0.00;0.00;;;;;;;5.82;52.70;100855.00;7361449;19;20035;-60
2022/03/31 00:05:34;;;;;;;0.00;0.00;;;;;;;5.75;52.42;100851.56;7363497;19;20007;-60
2022/03/31 00:08:03;;;;;;;0.00;0.00;;;;;;;5.79;52.89;100858.47;7353983;19;20031;-60
2022/03/31 00:10:52;;;;;;;0.00;0.00;;;;;;;5.70;52.73;100851.56;7364908;19;20023;-60
2022/03/31 00:13:22;;;;;;;0.00;0.00;;;;;;;5.75;53.20;100858.47;7260310;19;2004302;-61
2022/03/31 00:15:48;;;;;;;0.00;0.00;;;;;;;5.74;52.51;100860.22;7361228;19;20021;-60
2022/03/31 00:18:15;;;;;;;0.00;0.00;;;;;;;5.73;52.68;100866.28;7361137;19;20006;-59
2022/03/31 00:24:02;;;;;;;0.00;0.00;;;;;;;5.70;52.79;100871.44;7158339;19;2005221;-61
2022/03/31 00:26:27;;;;;;;0.00;0.00;;;;;;;5.66;53.22;100861.94;7364070;19;20030;-60
2022/03/31 00:28:53;;;;;;;0.00;0.00;;;;;;;5.52;53.40;100845.53;7358585;19;20536;-60
2022/03/31 00:31:20;;;;;;;0.00;0.00;;;;;;;5.65;53.42;100868.84;7356097;19;20003;-60
2022/03/31 00:33:45;;;;;;;0.10;0.10;;;;;;;5.60;53.44;100861.94;7362879;19;20003;-60
2022/03/31 00:36:12;;;;;;;0.00;0.00;;;;;;;5.67;52.94;100874.00;7356431;19;20490;-60
2022/03/31 00:38:38;;;;;;;0.00;0.00;;;;;;;5.62;53.00;100875.75;7357542;19;20014;-60
2022/03/31 00:41:03;;;;;;;0.00;0.00;;;;;;;5.68;53.06;100901.69;7361856;19;20033;-59
2022/03/31 00:43:29;;;;;;;0.00;0.00;;;;;;;5.61;52.92;100879.19;7361092;19;20046;-60
2022/03/31 00:45:56;;;;;;;0.00;0.00;;;;;;;5.53;53.35;100870.59;7363769;19;21279;-60
2022/03/31 00:48:23;;;;;;;0.00;0.00;;;;;;;5.65;53.66;100889.56;7356869;19;20097;-60
2022/03/31 00:50:49;;;;;;;0.10;0.10;;;;;;;5.68;52.99;100901.69;7357618;19;20139;-60
2022/03/31 00:53:18;;;;;;;0.10;0.10;;;;;;;5.60;53.09;100887.84;7346598;19;20011;-60
2022/03/31 00:55:44;;;;;;;0.10;0.10;;;;;;;5.55;53.35;100882.66;7362248;19;20021;-60
2022/03/31 00:58:10;;;;;;;0.00;0.00;;;;;;;5.62;52.79;100894.72;7357722;19;20010;-60
2022/03/31 01:00:36;;;;;;;0.00;0.00;;;;;;;5.56;53.10;100880.94;7361923;19;20695;-60
2022/03/31 01:03:02;;;;;;;0.00;0.00;;;;;;;5.68;53.18;100899.09;7355563;19;20732;-61
2022/03/31 01:05:28;;;;;;;0.00;0.00;;;;;;;5.61;53.25;100895.59;7360016;19;20013;-60
2022/03/31 01:07:55;;;;;;;0.00;0.00;;;;;;;5.72;53.33;100913.75;7362100;19;20865;-60
2022/03/31 01:10:20;;;;;;;0.00;0.00;;;;;;;5.75;53.31;100911.16;7349866;19;20130;-60
2022/03/31 01:12:46;;;;;;;0.00;0.00;;;;;;;5.75;53.69;100908.56;7361842;19;21229;-60
2022/03/31 01:15:16;;;;;;;0.00;0.00;;;;;;;5.79;53.38;100905.13;7354166;19;20098;-60
2022/03/31 01:17:44;;;;;;;0.00;0.00;;;;;;;5.70;53.53;100889.56;7358069;19;20011;-60
2022/03/31 01:20:14;;;;;;;0.00;0.00;;;;;;;5.79;53.51;100899.09;7359853;19;20030;-61
2022/03/31 01:22:42;;;;;;;0.00;0.00;;;;;;;5.87;53.63;100910.28;7358765;19;20014;-60
2022/03/31 01:25:09;;;;;;;0.00;0.00;;;;;;;5.80;53.78;100906.84;7359449;19;20007;-60
2022/03/31 01:27:36;;;;;;;0.00;0.00;;;;;;;5.81;53.96;100907.72;7354323;19;20020;-59
2022/03/31 01:30:04;;;;;;;0.00;0.00;;;;;;;5.85;53.90;100914.63;7359736;19;20014;-60
2022/03/31 01:32:30;;;;;;;0.10;0.10;;;;;;;5.85;53.88;100920.66;7353672;19;20825;-59
2022/03/31 01:34:56;;;;;;;0.00;0.00;;;;;;;5.89;54.06;100922.41;7361964;19;20103;-60
2022/03/31 01:37:22;;;;;;;0.10;0.10;;;;;;;5.55;54.08;100859.34;7355432;19;20022;-60
2022/03/31 01:39:47;;;;;;;0.00;0.00;;;;;;;5.89;53.99;100912.03;7355465;19;20026;-61
2022/03/31 01:42:13;;;;;;;0.00;0.00;;;;;;;5.93;53.74;100926.75;7358526;19;20503;-60
2022/03/31 01:44:39;;;;;;;0.00;0.00;;;;;;;5.94;53.87;100925.91;7356021;19;21553;-60
2022/03/31 01:47:04;;;;;;;0.00;0.00;;;;;;;5.93;54.00;100918.09;7358522;19;20037;-59
2022/03/31 01:49:30;;;;;;;0.00;0.00;;;;;;;5.76;53.83;100905.13;7359298;19;20017;-60
2022/03/31 01:51:55;;;;;;;0.00;0.00;;;;;;;5.79;53.33;100914.63;7352061;19;20056;-60
2022/03/31 01:54:21;;;;;;;0.10;0.10;;;;;;;5.90;53.82;100939.69;7357192;19;20022;-59
2022/03/31 01:56:48;;;;;;;0.00;0.00;;;;;;;5.89;53.54;100943.13;7360480;19;20018;-60
2022/03/31 01:59:14;;;;;;;0.00;0.00;;;;;;;5.82;53.27;100920.66;7348650;19;20588;-60
2022/03/31 02:01:39;;;;;;;0.00;0.00;;;;;;;5.84;53.82;100939.69;7358644;19;20571;-60
2022/03/31 02:04:05;;;;;;;0.00;0.00;;;;;;;5.85;53.47;100937.94;7355401;19;20010;-60
2022/03/31 02:06:31;;;;;;;0.00;0.00;;;;;;;5.84;53.01;100950.03;7361138;19;20015;-60
2022/03/31 02:08:57;;;;;;;0.00;0.00;;;;;;;5.78;52.85;100943.97;7363307;19;20013;-60
2022/03/31 02:11:22;;;;;;;0.00;0.00;;;;;;;5.75;53.12;100939.66;7343665;19;20014;-60
2022/03/31 02:13:48;;;;;;;0.00;0.00;;;;;;;5.66;53.01;100931.88;7354885;19;20010;-60
2022/03/31 02:16:14;;;;;;;0.00;0.00;;;;;;;5.77;52.82;100963.84;7359205;19;20026;-60
2022/03/31 02:18:40;;;;;;;0.00;0.00;;;;;;;5.69;53.07;100944.84;7363562;19;20362;-59
2022/03/31 02:21:06;;;;;;;0.00;0.00;;;;;;;5.74;52.90;100958.69;7358489;19;20006;-60
2022/03/31 02:23:31;;;;;;;0.00;0.00;;;;;;;5.72;53.06;100955.19;7364186;19;20066;-60
2022/03/31 02:25:57;;;;;;;0.00;0.00;;;;;;;5.70;52.99;100951.75;7363887;19;20006;-60
2022/03/31 02:28:23;;;;;;;0.00;0.00;;;;;;;5.68;52.91;100958.69;7348198;19;20021;-60
2022/03/31 02:30:48;;;;;;;0.00;0.00;;;;;;;5.50;53.18;100938.78;7362552;19;21015;-60
2022/03/31 02:33:14;;;;;;;0.00;0.00;;;;;;;5.55;53.01;100949.16;7364741;19;20025;-60
2022/03/31 02:35:39;;;;;;;0.00;0.00;;;;;;;5.61;53.44;100956.91;7350230;19;20018;-61
2022/03/31 02:38:05;;;;;;;0.00;0.00;;;;;;;5.44;53.29;100928.41;7363830;19;20018;-61
2022/03/31 02:40:30;;;;;;;0.00;0.00;;;;;;;5.54;53.22;100950.88;7357439;19;20021;-61
2022/03/31 02:42:56;;;;;;;0.00;0.00;;;;;;;5.51;53.50;100950.00;7361580;19;20037;-60
2022/03/31 02:45:21;;;;;;;0.00;0.00;;;;;;;5.58;53.54;100954.34;7360399;19;20658;-60
2022/03/31 02:47:47;;;;;;;0.00;0.00;;;;;;;5.49;53.45;100943.97;7362737;19;20014;-60
2022/03/31 02:50:14;;;;;;;0.00;0.00;;;;;;;5.59;53.44;100969.00;7360428;19;20002;-60
2022/03/31 02:55:24;;;;;;;0.00;0.00;;;;;;;5.53;53.74;100969.00;7356170;19;20018;-60
2022/03/31 02:57:51;;;;;;;0.00;0.00;;;;;;;5.39;53.92;100953.44;7348382;19;20321;-60
2022/03/31 03:00:17;;;;;;;0.10;0.10;;;;;;;5.54;54.41;100975.91;7358841;19;20442;-60
2022/03/31 03:02:42;;;;;;;0.00;0.00;;;;;;;5.54;54.55;100981.09;7355676;19;20043;-61
2022/03/31 03:05:08;;;;;;;0.00;0.00;;;;;;;5.52;54.30;100977.63;7356314;19;20595;-61
2022/03/31 03:07:33;;;;;;;0.00;0.00;;;;;;;5.48;54.66;100976.78;7361293;19;20039;-61
2022/03/31 03:09:59;;;;;;;0.00;0.00;;;;;;;5.51;54.81;100978.47;7356368;19;20015;-62
2022/03/31 03:12:24;;;;;;;0.00;0.00;;;;;;;5.53;54.74;100985.41;7358644;19;20023;-60
2022/03/31 03:14:51;;;;;;;0.00;0.00;;;;;;;5.41;54.76;100970.69;7356691;19;20006;-61
2022/03/31 03:17:17;;;;;;;0.00;0.00;;;;;;;5.44;54.81;100962.06;7362474;19;20482;-61
2022/03/31 03:19:42;;;;;;;0.00;0.00;;;;;;;5.44;54.81;100970.69;7350581;19;20037;-60
2022/03/31 03:22:08;;;;;;;0.00;0.00;;;;;;;5.60;54.79;100994.91;7360746;19;20953;-61
2022/03/31 03:24:33;;;;;;;0.00;0.00;;;;;;;5.64;54.93;100993.22;7364906;19;20010;-61
2022/03/31 03:26:58;;;;;;;0.00;0.00;;;;;;;5.63;54.86;100992.34;7364612;19;20014;-60
2022/03/31 03:29:24;;;;;;;0.00;0.00;;;;;;;5.65;55.13;100984.56;7358554;19;20038;-61
2022/03/31 03:31:51;;;;;;;0.00;0.00;;;;;;;5.62;54.78;100984.53;7365135;19;20121;-59
2022/03/31 03:34:16;;;;;;;0.00;0.00;;;;;;;5.66;55.05;100994.91;7360540;19;20006;-60
2022/03/31 03:36:41;;;;;;;0.00;0.00;;;;;;;5.56;55.07;100989.72;7363473;19;20391;-60
2022/03/31 03:39:07;;;;;;;0.00;0.00;;;;;;;5.68;54.30;101000.13;7361345;19;20338;-59
2022/03/31 03:41:32;;;;;;;0.00;0.00;;;;;;;5.27;54.42;100938.72;7360716;19;20378;-60
2022/03/31 03:43:58;;;;;;;0.00;0.00;;;;;;;5.62;54.05;101005.28;7365027;19;20345;-60
2022/03/31 03:46:23;;;;;;;0.00;0.00;;;;;;;5.58;54.32;100996.66;7356921;19;20010;-61
2022/03/31 03:48:48;;;;;;;0.00;0.00;;;;;;;5.53;54.39;100985.41;7363850;19;20018;-60
2022/03/31 03:51:15;;;;;;;0.00;0.00;;;;;;;5.61;54.10;101009.59;7363096;19;20094;-59
2022/03/31 03:53:40;;;;;;;0.00;0.00;;;;;;;5.58;53.79;101009.59;7362899;19;20402;-60
2022/03/31 03:56:05;;;;;;;0.00;0.00;;;;;;;5.53;54.16;101006.13;7364393;19;20108;-60
2022/03/31 03:58:31;;;;;;;0.00;0.00;;;;;;;5.53;53.87;101013.03;7357048;19;20022;-61
2022/03/31 04:00:56;;;;;;;0.00;0.00;;;;;;;5.53;53.75;101011.31;7365520;19;20006;-61
2022/03/31 04:03:21;;;;;;;0.00;0.00;;;;;;;5.41;53.95;100996.59;7352791;19;20343;-60
2022/03/31 04:05:47;;;;;;;0.00;0.00;;;;;;;5.43;54.12;101001.78;7358823;19;20820;-60
2022/03/31 04:08:14;;;;;;;0.00;0.00;;;;;;;5.55;54.70;101017.34;7363324;19;20042;-60
2022/03/31 04:10:39;;;;;;;0.00;0.00;;;;;;;5.55;54.50;101029.44;7358532;19;20021;-60
2022/03/31 04:13:05;;;;;;;0.00;0.00;;;;;;;5.54;54.89;101030.31;7359222;19;20458;-61
2022/03/31 04:15:30;;;;;;;0.00;0.00;;;;;;;5.55;54.59;101029.44;7361790;19;20006;-61
2022/03/31 04:17:56;;;;;;;0.00;0.00;;;;;;;5.56;54.61;101031.16;7364151;19;20006;-61
2022/03/31 04:20:21;;;;;;;0.00;0.00;;;;;;;5.54;54.60;101025.13;7359369;19;20052;-60
2022/03/31 04:22:46;;;;;;;0.00;0.00;;;;;;;5.57;54.80;101030.31;7364614;19;20010;-60
2022/03/31 04:25:13;;;;;;;0.00;0.00;;;;;;;5.56;54.52;101026.84;7358081;19;20048;-60
2022/03/31 04:27:39;;;;;;;0.00;0.00;;;;;;;5.56;54.46;101033.75;7360296;19;20021;-60
2022/03/31 04:30:08;;;;;;;0.00;0.00;;;;;;;5.55;54.37;101029.44;7356582;19;20815;-60
2022/03/31 04:32:33;;;;;;;0.00;0.00;;;;;;;5.38;54.20;101012.13;7357205;19;22408;-61
2022/03/31 04:34:58;;;;;;;0.10;0.10;;;;;;;5.47;54.45;101030.31;7361932;19;20038;-60
2022/03/31 04:37:24;;;;;;;0.00;0.00;;;;;;;5.09;54.28;100968.00;7361545;19;20018;-60
2022/03/31 04:39:49;;;;;;;0.10;0.10;;;;;;;5.39;54.47;101031.97;7347863;19;20018;-60
2022/03/31 04:42:15;;;;;;;0.00;0.00;;;;;;;5.36;54.42;101031.09;7364063;19;20103;-60
2022/03/31 04:44:40;;;;;;;0.00;0.00;;;;;;;5.31;54.72;101031.06;7352655;19;20007;-60
2022/03/31 04:47:07;;;;;;;0.10;0.10;;;;;;;5.43;54.32;101051.00;7360537;19;20021;-60
2022/03/31 04:49:33;;;;;;;0.00;0.00;;;;;;;5.36;54.32;101044.91;7360762;19;20017;-60
2022/03/31 04:51:58;;;;;;;0.10;0.10;;;;;;;5.38;54.17;101043.22;7365488;19;20019;-60
2022/03/31 04:54:24;;;;;;;0.00;0.00;;;;;;;5.41;54.42;101050.97;7359718;19;20464;-60
2022/03/31 04:56:49;;;;;;;0.10;0.10;;;;;;;5.41;54.42;101052.69;7358903;19;20031;-60
2022/03/31 04:59:15;;;;;;;0.00;0.00;;;;;;;5.35;54.30;101042.31;7359248;19;20457;-59
2022/03/31 05:01:40;;;;;;;0.00;0.00;;;;;;;5.41;53.83;101063.91;7362211;19;20476;-60
2022/03/31 05:04:06;;;;;;;0.10;0.10;;;;;;;5.39;54.24;101055.28;7362283;19;20052;-59
2022/03/31 05:06:31;;;;;;;0.00;0.00;;;;;;;5.27;54.06;101042.31;7357528;19;20014;-60
2022/03/31 05:08:57;;;;;;;0.00;0.00;;;;;;;5.42;54.35;101064.78;7357630;19;20115;-60
2022/03/31 05:11:22;;;;;;;0.00;0.00;;;;;;;5.40;54.45;101059.59;7360824;19;20010;-60
2022/03/31 05:13:47;;;;;;;0.00;0.00;;;;;;;5.41;54.71;101071.69;7358388;19;20041;-60
2022/03/31 05:16:13;;;;;;;0.00;0.00;;;;;;;5.42;54.12;101070.84;7355480;19;20011;-59
2022/03/31 05:18:38;;;;;;;0.00;0.00;;;;;;;5.43;54.17;101072.56;7362011;19;20022;-60
2022/03/31 05:21:04;;;;;;;0.00;0.00;;;;;;;5.35;54.27;101063.91;7361806;19;20367;-60
2022/03/31 05:23:29;;;;;;;0.10;0.10;;;;;;;5.42;54.23;101073.44;7361647;19;20017;-59
2022/03/31 05:25:55;;;;;;;0.00;0.00;;;;;;;5.42;54.22;101068.25;7359415;19;20362;-60
2022/03/31 05:28:21;;;;;;;0.00;0.00;;;;;;;5.40;54.26;101064.78;7359056;19;20003;-60
2022/03/31 05:30:46;;;;;;;0.00;0.00;;;;;;;5.38;54.06;101069.09;7353921;19;20046;-60
2022/03/31 05:33:12;;;;;;;0.00;0.00;;;;;;;5.39;53.83;101070.81;7363323;19;20010;-61
2022/03/31 05:35:37;;;;;;;0.00;0.00;;;;;;;5.47;53.90;101083.78;7357022;19;20038;-61
2022/03/31 05:38:03;;;;;;;0.00;0.00;;;;;;;5.44;53.57;101084.66;7361005;19;20469;-60
2022/03/31 05:40:29;;;;;;;0.10;0.10;;;;;;;5.56;53.78;101095.94;7367910;19;20085;-60
2022/03/31 05:42:55;;;;;;;0.00;0.00;;;;;;;5.55;54.02;101101.97;7361249;19;20010;-60
2022/03/31 05:45:21;;;;;;;0.00;0.00;;;;;;;5.59;53.79;101107.19;7366577;19;20018;-60
2022/03/31 05:47:47;;;;;;;0.00;0.00;;;;;;;5.61;53.55;101112.34;7366288;19;20749;-60
2022/03/31 05:50:13;;;;;;;0.03;0.03;;;;;;;5.59;53.95;101109.78;7366778;19;20030;-61
2022/03/31 05:52:38;;;;;;;0.00;0.00;;;;;;;5.28;53.75;101064.75;7366846;19;20011;-60
2022/03/31 05:55:06;;;;;;;0.00;0.00;;;;;;;5.53;53.29;101098.53;7367692;19;20047;-60
2022/03/31 05:57:33;;;;;;;0.00;0.00;;;;;;;5.60;53.24;101118.41;7355248;19;20773;-61
2022/03/31 05:59:59;;;;;;;0.00;0.00;;;;;;;5.62;53.64;101116.66;7369061;19;20010;-60
2022/03/31 06:02:24;;;;;;;0.00;0.00;;;;;;;5.65;53.66;101132.25;7366531;19;20061;-60
2022/03/31 06:04:50;;;;;;;0.00;0.00;;;;;;;5.51;53.44;101106.28;7364734;19;20835;-60
2022/03/31 06:07:17;;;;;;;0.00;0.00;;;;;;;5.51;53.42;101098.50;7367741;19;20043;-61
2022/03/31 06:09:42;;;;;;;0.00;0.00;;;;;;;5.68;53.24;101137.44;7364024;19;20011;-60
2022/03/31 06:12:08;;;;;;;0.00;0.00;;;;;;;5.31;53.79;101077.69;7366440;19;20015;-60
2022/03/31 06:14:34;;;;;;;0.00;0.00;;;;;;;5.63;53.58;101128.78;7364120;19;20555;-60
2022/03/31 06:16:59;;;;;;;0.03;0.03;;;;;;;5.72;53.82;101144.34;7367205;19;20089;-60
2022/03/31 06:19:25;;;;;;;0.10;0.10;;;;;;;5.54;53.79;101111.47;7363310;19;20015;-61
2022/03/31 06:21:50;;;;;;;0.00;0.00;;;;;;;5.72;53.96;101152.13;7365381;19;20021;-60
2022/03/31 06:24:16;;;;;;;0.00;0.00;;;;;;;5.63;53.81;101136.56;7361554;19;20115;-60
2022/03/31 06:26:41;;;;;;;0.00;0.00;;;;;;;5.72;53.82;101154.72;7367023;19;20674;-60
2022/03/31 06:29:08;;;;;;;0.00;0.00;;;;;;;5.77;53.96;101149.56;7361424;19;20006;-60
2022/03/31 06:31:33;;;;;;;0.00;0.00;;;;;;;5.70;53.66;101144.34;7364863;19;20010;-60
2022/03/31 06:33:59;;;;;;;0.00;0.00;;;;;;;5.74;53.61;101155.59;7364795;19;20037;-60
2022/03/31 06:36:25;;;;;;;0.00;0.00;;;;;;;5.80;53.74;101162.53;7360878;19;20151;-61
2022/03/31 06:38:50;;;;;;;0.00;0.00;;;;;;;5.67;53.81;101146.91;7360579;19;20736;-61
2022/03/31 06:41:17;;;;;;;0.00;0.00;;;;;;;5.64;53.71;101151.25;7364995;19;20017;-58
2022/03/31 06:43:45;;;;;;;0.00;0.00;;;;;;;5.77;53.99;101175.47;7357548;19;20014;-60
2022/03/31 06:46:12;;;;;;;0.00;0.00;;;;;;;5.82;53.48;101182.41;7362227;19;20013;-60
2022/03/31 06:48:41;;;;;;;0.00;0.00;;;;;;;5.80;53.75;101189.31;7358472;19;20049;-60
2022/03/31 06:51:08;;;;;;;0.10;0.10;;;;;;;5.76;53.30;101184.09;7362002;19;20018;-60
2022/03/31 06:53:33;;;;;;;0.00;0.00;;;;;;;5.79;53.54;101179.81;7359672;19;20119;-61
2022/03/31 06:55:59;;;;;;;0.00;0.00;;;;;;;5.63;53.63;101162.47;7357881;19;20018;-60
2022/03/31 06:58:29;;;;;;;0.00;0.00;;;;;;;5.79;53.00;101189.31;7359980;19;20045;-60
2022/03/31 07:00:56;;;;;;;0.05;0.05;;;;;;;5.78;53.47;101193.63;7360061;19;20584;-60
2022/03/31 07:03:21;;;;;;;0.03;0.03;;;;;;;5.67;53.55;101174.56;7352399;19;20670;-61
2022/03/31 07:05:47;;;;;;;0.00;0.00;;;;;;;5.61;53.53;101159.00;7352112;19;20041;-60
2022/03/31 07:08:12;;;;;;;0.00;0.00;;;;;;;5.82;53.32;101194.50;7358065;19;20026;-60
2022/03/31 07:10:38;;;;;;;0.00;0.00;;;;;;;5.83;53.85;101201.41;7354110;19;20018;-60
2022/03/31 07:13:03;;;;;;;0.00;0.00;;;;;;;5.93;54.14;101219.66;7360072;19;20006;-60
2022/03/31 07:15:29;;;;;;;0.00;0.00;;;;;;;5.67;53.89;101164.19;7354440;19;20926;-59
2022/03/31 07:17:55;;;;;;;0.00;0.00;;;;;;;6.06;54.07;101236.13;7356731;19;20740;-60
2022/03/31 07:20:22;;;;;;;0.00;0.00;;;;;;;6.11;53.43;101233.56;7354758;19;20071;-60
2022/03/31 07:22:48;;;;;;;0.00;0.00;;;;;;;6.10;53.39;101232.69;7362962;19;20014;-61
2022/03/31 07:25:16;;;;;;;0.00;0.00;;;;;;;6.18;53.38;101240.47;7360995;19;20041;-59
2022/03/31 07:27:42;;;;;;;0.00;0.00;;;;;;;6.19;53.08;101247.44;7362175;19;20014;-60
2022/03/31 07:30:08;;;;;;;0.00;0.00;;;;;;;6.09;52.45;101230.09;7359216;19;20054;-61
2022/03/31 07:32:33;;;;;;;0.00;0.00;;;;;;;6.23;52.72;101259.53;7359627;19;20044;-60
2022/03/31 07:35:00;;;;;;;0.00;0.00;;;;;;;6.20;52.71;101252.59;7363387;19;20022;-60
2022/03/31 07:37:26;;;;;;;0.00;0.00;;;;;;;6.03;52.61;101214.50;7360567;19;20013;-60
2022/03/31 07:39:51;;;;;;;0.00;0.00;;;;;;;6.18;52.73;101256.03;7358299;19;20631;-60
2022/03/31 07:42:17;;;;;;;0.00;0.00;;;;;;;6.22;53.12;101266.44;7359699;19;20850;-60
2022/03/31 07:44:43;;;;;;;0.00;0.00;;;;;;;6.29;52.79;101269.09;7362038;19;20031;-60
2022/03/31 07:47:09;;;;;;;0.00;0.00;;;;;;;6.20;52.83;101254.34;7361082;19;20365;-60
2022/03/31 07:49:35;;;;;;;0.10;0.10;;;;;;;6.36;52.71;101281.19;7356577;19;20011;-60
2022/03/31 07:52:00;;;;;;;0.00;0.00;;;;;;;6.33;52.89;101266.47;7364059;19;20006;-60
2022/03/31 07:54:26;;;;;;;0.00;0.00;;;;;;;6.38;52.34;101272.53;7360326;19;20014;-60
2022/03/31 07:56:52;;;;;;;0.00;0.00;;;;;;;6.47;51.93;101285.56;7357565;19;20134;-60
2022/03/31 07:59:23;;;;;;;0.10;0.10;;;;;;;6.49;52.04;101286.44;7356896;19;20014;-60
2022/03/31 08:01:49;;;;;;;0.00;0.00;;;;;;;6.52;52.27;101290.75;7343942;19;20022;-61
2022/03/31 08:04:16;;;;;;;0.00;0.00;;;;;;;6.52;51.59;101287.31;7354456;19;20014;-59
2022/03/31 08:06:42;;;;;;;0.00;0.00;;;;;;;6.39;52.01;101263.94;7354691;19;20006;-62
2022/03/31 08:09:08;;;;;;;0.00;0.00;;;;;;;6.55;51.12;101297.72;7351511;19;20039;-60
2022/03/31 08:11:34;;;;;;;0.00;0.00;;;;;;;6.36;51.56;101269.09;7354588;19;20011;-60
2022/03/31 08:13:59;;;;;;;0.00;0.00;;;;;;;6.57;51.41;101308.94;7359753;19;20009;-60
2022/03/31 08:16:25;;;;;;;0.00;0.00;;;;;;;6.59;51.55;101304.63;7357592;19;20010;-59
2022/03/31 08:18:50;;;;;;;0.00;0.00;;;;;;;6.45;51.49;101282.09;7361819;19;20014;-59
2022/03/31 08:21:16;;;;;;;0.00;0.00;;;;;;;6.64;51.47;101313.28;7356024;19;20010;-60
2022/03/31 08:23:42;;;;;;;0.00;0.00;;;;;;;6.60;51.62;101301.19;7362022;19;20007;-60
2022/03/31 08:26:07;;;;;;;0.00;0.00;;;;;;;6.73;52.18;101315.91;7363001;19;20018;-60
2022/03/31 08:28:32;;;;;;;0.00;0.00;;;;;;;6.80;52.01;101307.28;7353046;19;20733;-60
2022/03/31 08:30:58;;;;;;;0.00;0.00;;;;;;;6.91;51.76;101313.38;7361557;19;20006;-59
2022/03/31 08:33:24;;;;;;;0.00;0.00;;;;;;;7.03;51.66;101317.72;7356884;19;20023;-60
2022/03/31 08:35:49;;;;;;;0.00;0.00;;;;;;;7.13;51.34;101319.47;7353390;19;20014;-59
2022/03/31 08:38:15;;;;;;;0.00;0.00;;;;;;;7.33;51.42;101322.06;7355670;19;20031;-59
2022/03/31 08:40:42;;;;;;;0.00;0.00;;;;;;;7.53;50.59;101330.75;7361499;19;20098;-60
2022/03/31 08:43:08;;;;;;;0.00;0.00;;;;;;;7.71;50.45;101323.81;7358751;19;20022;-60
2022/03/31 08:45:35;;;;;;;0.00;0.00;;;;;;;7.94;50.36;101332.44;7359362;19;20026;-60
2022/03/31 08:48:01;;;;;;;0.00;0.00;;;;;;;8.15;50.28;101328.06;7355553;19;20049;-59
2022/03/31 08:50:27;;;;;;;0.00;0.00;;;;;;;8.20;49.82;101314.16;7361808;19;20018;-60
2022/03/31 08:52:53;;;;;;;0.00;0.00;;;;;;;8.38;49.63;101310.69;7353153;19;20022;-60
2022/03/31 08:55:19;;;;;;;0.00;0.00;;;;;;;8.67;49.17;101343.50;7357217;19;20032;-59
2022/03/31 08:57:48;;;;;;;0.00;0.00;;;;;;;8.66;48.44;101323.56;7349852;19;20015;-59
2022/03/31 09:00:15;;;;;;;0.00;0.00;;;;;;;8.76;48.47;101338.25;7358846;19;20034;-61
2022/03/31 09:02:52;;;;;;;0.00;0.00;;;;;;;8.77;48.79;101340.03;7360817;19;20027;-59
2022/03/31 09:05:17;;;;;;;0.00;0.00;;;;;;;8.71;48.09;101340.88;7355748;19;20007;-59
2022/03/31 09:08:00;;;;;;;0.00;0.00;;;;;;;8.74;48.17;101346.09;7362899;19;20021;-59
2022/03/31 09:10:37;;;;;;;0.00;0.00;;;;;;;8.65;48.11;101340.06;7353812;19;20018;-59
2022/03/31 09:13:15;;;;;;;0.00;0.00;;;;;;;8.55;47.47;101337.50;7360569;19;20006;-58
2022/03/31 09:15:47;;;;;;;0.10;0.10;;;;;;;8.67;48.07;101352.22;7356033;19;20584;-60
2022/03/31 09:18:17;;;;;;;0.00;0.00;;;;;;;8.80;47.66;101358.22;7351830;19;20018;-60
2022/03/31 09:20:44;;;;;;;0.00;0.00;;;;;;;8.97;47.86;101346.00;7353842;19;20081;-61
2022/03/31 09:23:18;;;;;;;0.00;0.00;;;;;;;9.28;47.30;101364.03;7360559;19;20025;-60
2022/03/31 09:25:44;;;;;;;0.00;0.00;;;;;;;9.55;47.41;101361.22;7359348;19;20014;-60
2022/03/31 09:28:18;;;;;;;0.00;0.00;;;;;;;9.97;47.98;101359.09;7359093;19;20002;-58
2022/03/31 09:30:53;;;;;;;0.00;0.00;;;;;;;10.36;47.53;101357.00;7358953;19;20454;-59
2022/03/31 09:33:48;;;;;;;0.00;0.00;;;;;;;10.78;47.75;101355.59;7352646;19;20010;-57
2022/03/31 09:36:18;;;;;;;0.00;0.00;;;;;;;11.08;45.86;101354.31;7252497;19;2004317;-58
2022/03/31 09:38:53;;;;;;;0.00;0.00;;;;;;;11.40;45.57;101355.56;7357091;19;20793;-57
2022/03/31 09:41:22;;;;;;;0.00;0.00;;;;;;;11.64;45.16;101375.25;7357001;19;20033;-57
2022/03/31 09:43:49;;;;;;;0.00;0.00;;;;;;;11.93;43.34;101370.44;7348563;19;20010;-58
2022/03/31 09:46:36;;;;;;;0.00;0.00;;;;;;;12.37;45.67;101373.13;7357482;19;20014;-59
2022/03/31 09:49:18;;;;;;;0.00;0.00;;;;;;;12.78;45.02;101369.69;7247242;19;2004167;-58
2022/03/31 09:51:49;;;;;;;0.00;0.00;;;;;;;13.10;43.10;101376.81;7344520;19;20460;-58
2022/03/31 09:54:15;;;;;;;0.00;0.00;;;;;;;13.37;40.66;101379.75;7353959;19;20022;-58
2022/03/31 09:56:41;;;;;;;0.00;0.00;;;;;;;13.67;41.04;101376.38;7356826;19;20026;-58
2022/03/31 09:59:09;;;;;;;0.00;0.00;;;;;;;14.03;40.28;101386.84;7356125;19;21332;-58
2022/03/31 10:01:36;;;;;;;0.00;0.00;;;;;;;14.31;39.22;101386.13;7353174;19;20010;-60
2022/03/31 10:04:02;;;;;;;0.00;0.00;;;;;;;14.53;39.39;101376.78;7357471;19;20772;-58
2022/03/31 10:06:28;;;;;;;0.00;0.00;;;;;;;14.83;39.38;101385.53;7359161;19;20010;-58
2022/03/31 10:08:56;;;;;;;0.00;0.00;;;;;;;15.13;36.93;101398.69;7354051;19;20889;-58
2022/03/31 10:11:23;;;;;;;0.00;0.00;;;;;;;15.42;37.09;101395.16;7354826;19;20722;-58
2022/03/31 10:13:52;;;;;;;0.00;0.00;;;;;;;15.78;37.48;101399.25;7357408;19;20419;-59
2022/03/31 10:16:22;;;;;;;0.00;0.00;;;;;;;15.93;36.52;101375.97;7355364;19;20115;-58
2022/03/31 10:18:47;;;;;;;0.10;0.10;;;;;;;16.26;35.58;101395.00;7356577;19;20054;-57
2022/03/31 10:21:24;;;;;;;0.00;0.00;;;;;;;16.52;35.36;101401.97;7356312;19;20014;-59
2022/03/31 10:26:34;;;;;;;0.00;0.00;;;;;;;16.93;35.49;101404.88;7363543;19;20014;-58
2022/03/31 10:29:02;;;;;;;0.10;0.10;;;;;;;17.03;34.49;101395.69;7364834;19;20010;-58
2022/03/31 10:31:45;;;;;;;0.00;0.00;;;;;;;17.19;36.81;101404.78;7359668;19;20010;-58
2022/03/31 10:34:14;;;;;;;0.00;0.00;;;;;;;17.17;33.65;101406.59;7367352;19;20458;-58
2022/03/31 10:36:45;;;;;;;0.00;0.00;;;;;;;17.24;33.96;101400.16;7357663;19;20023;-57
2022/03/31 10:39:23;;;;;;;0.00;0.00;;;;;;;17.54;34.87;101407.78;7361621;19;20015;-57
2022/03/31 10:42:03;;;;;;;0.00;0.00;;;;;;;17.78;36.79;101404.16;7364855;19;20102;-57
2022/03/31 10:44:29;;;;;;;0.00;0.00;;;;;;;17.86;34.75;101396.78;7361695;19;20014;-59
2022/03/31 10:47:01;;;;;;;0.00;0.00;;;;;;;18.09;34.31;101402.88;7358863;19;20034;-60
2022/03/31 10:49:27;;;;;;;0.10;0.10;;;;;;;17.99;32.55;101401.53;7359701;19;20014;-59
2022/03/31 10:51:53;;;;;;;0.00;0.00;;;;;;;17.87;32.64;101413.50;7364981;19;20018;-58
2022/03/31 10:54:30;;;;;;;0.00;0.00;;;;;;;17.75;34.05;101412.22;7344962;19;20010;-58
2022/03/31 10:57:08;;;;;;;0.03;0.03;;;;;;;17.56;34.62;101412.06;7363451;19;20023;-58
2022/03/31 10:59:35;;;;;;;0.00;0.00;;;;;;;17.31;33.33;101408.69;7358383;19;20845;-59
2022/03/31 11:02:15;;;;;;;0.10;0.10;;;;;;;17.14;34.32;101413.78;7361419;19;22290;-58
2022/03/31 11:04:52;;;;;;;0.00;0.00;;;;;;;16.68;33.94;101412.84;7364473;19;20612;-57
2022/03/31 11:07:24;;;;;;;0.00;0.00;;;;;;;16.49;33.91;101424.06;7361542;19;20113;-58
2022/03/31 11:10:04;;;;;;;0.00;0.00;;;;;;;16.37;35.68;101418.34;7360092;19;19998;-57
2022/03/31 11:12:30;;;;;;;0.00;0.00;;;;;;;16.32;34.74;101414.13;7362424;19;20023;-59
2022/03/31 11:14:59;;;;;;;0.00;0.00;;;;;;;16.49;35.19;101428.47;7365418;19;20002;-58
2022/03/31 11:17:25;;;;;;;0.00;0.00;;;;;;;16.64;34.99;101416.50;7362560;19;20556;-58
2022/03/31 11:19:53;;;;;;;0.00;0.00;;;;;;;16.91;35.07;101414.66;7359355;19;20021;-58
2022/03/31 11:22:20;;;;;;;0.00;0.00;;;;;;;17.08;34.55;101401.66;7361896;19;20458;-60
2022/03/31 11:24:46;;;;;;;0.10;0.10;;;;;;;17.34;32.88;101414.72;7361857;19;20030;-59
2022/03/31 11:27:11;;;;;;;0.00;0.00;;;;;;;17.40;33.38;101421.53;7350447;19;20011;-58
2022/03/31 11:29:36;;;;;;;0.00;0.00;;;;;;;17.56;33.63;101413.88;7361740;19;20042;-58
2022/03/31 11:32:02;;;;;;;0.03;0.03;;;;;;;17.86;33.48;101409.13;7359606;19;20034;-60
2022/03/31 11:34:30;;;;;;;0.00;0.00;;;;;;;18.23;32.97;101416.34;7359139;19;20038;-59
2022/03/31 11:36:57;;;;;;;0.00;0.00;;;;;;;18.62;32.67;101423.47;7351077;19;20006;-59
2022/03/31 11:39:28;;;;;;;0.00;0.00;;;;;;;18.98;32.85;101425.41;7356793;19;20010;-60